Kezdőlap
METAR-TAF:

METAR-TAF

Repülőterek :

Dallas Executive Airport

Dallas, Texas, Amerikai Egyesült Államok

földrajzi szélesség: 32-40-33N, földrajzi hosszúság: 096-51-50W, magasság: 201 m

Jelenlegi meteorológiai megfigyelések

A jelentés 1 órával és 11 perccel ezelõtt készült, 03:53 UTC
Dél-délkeleti szél 7 kt
Hőmérséklet 27°C
Páratartalom 70%
Légköri nyomás 1011 hPa
Látótávolság: 16.1 km
Derült ég

METAR: KRBD 170353Z AUTO 16007KT 10SM CLR 27/21 A2984 RMK AO2 SLP095 T02720206

Idő: 00:04 (05:04 UTC)


TAF: hiányzik

Meteorológiai megfigyelések és előrejelzések több, mint 4000 repülőtéren (METAR és TAF jelentéseket).

A térképen piros és sárga pontok jelzik az elérhető meteorológiai állomásokat.

Mozgassa az egeret a pont fölött, hogy megjelenjen az állomás neve.

Azután kattintson az időjárási megfigyelések és előrejelzések megtekintéséhez.

A térkép megváltoztatása: kattintson a fekete keresztel jelölt zöld gombra ráközelítéshez, a vonallal jelölt zöld gombra távolításhoz, vagy a zöld nyilakra a szomszédos térképek eléréséhez.


METAR-TAF: